AREA preflight bulletin
Updated "live" 22 Oct 2019, 00:49

back to the map




METAR og TAF


NARSARSUAQ
  AKTUEL BGBW 220020Z AUTO 06004KT 9999NDV BKN011/// OVC017/// 03/M01 Q1014=
  TAF 9 timer BGBW 211401Z 2115/2119 23005KT 9999 FEW200 PROB40 2115/2117 1200 BCFG BKN005 BECMG 2117/2119 0400 FG VV002=

QAQORTOQ
  AKTUEL

PAAMIUT
  AKTUEL BGPT 220020Z AUTO 17005KT 140V200 0350NDV VV003/// 01/00 Q1015=

NARSAQ
  AKTUEL

NANORTALIK
  AKTUEL BGNN 220020Z AUTO 36009KT //// ///////// 03/02 Q1014=

NUUK
  AKTUEL BGGH 220020Z AUTO 05014KT 9999NDV NCD 01/M07 Q1015=
  TAF 9 timer BGGH 212104Z 2121/2122 CNL=

KANGERLUSSUAQ
  AKTUEL BGSF 220020Z AUTO 05007KT 9999NDV NCD M12/M15 Q1025=
  TAF 24 timer BGSF 212248Z 2200/2306 07008KT 9999 FEW070=


SIGMETS:

Ingen SIGMET fundet:

NOTAM/SNOWTAM for operationel use has to be confirmed with the
nearest AIS Briefing Office prior to a flight.

ICAO
BGBW (NARSARSUAQ)

FIR
BGGL

Notam_id:
BGA0471/19

valid from:
1911070000

E) TRIGGER NOTAM - PERM AIP AIRAC AMDT 07/19 WEF 07 NOV 2019. INSTRUMENT APPROACH FOR CAT C AIRCRAFT WITHDRAWN ON CHART RNAV (GNSS) Y RWY 06.

valid to:
1911202359




ICAO
BGBW (NARSARSUAQ)

FIR
BGGL

Notam_id:
BGA0323/19

valid from:
1906261918

E) USE OF INSTRUMENT APPROACH PROCEDURE RNAV (GNSS) Y RWY 06 FOR AIRCRAFT CATEGORY C SUSPENDED.

valid to:
PERM


Replacing:
BGA0306/19

ICAO
BGPT (PAAMIUT)

FIR
BGGL

Notam_id:
BGB0627/19

valid from:
1911070000

E) TRIGGER NOTAM - PERM AIP AIRAC AMDT 07/19 WEF 07 NOV 2019. DME PA (CH26Y) WITHDRAWN.

valid to:
1911202359




ICAO
BGPT (PAAMIUT)

FIR
BGGL

Notam_id:
BGB0506/19

valid from:
1907172127

E) DME PA/PAAMIUT CH26Y, FREQ 108.950MHZ COMPLETELY WITHDRAWN. REF AIP GEN 2.5 AND AD 2 - BGPT - 4, ITEM 19.

valid to:
PERM




ICAO
BGPT (PAAMIUT)

FIR
BGGL

Notam_id:
BGB0666/19

valid from:
1910151815

E) BGPT ABN PAAMIUT POS 62004287N049401825W U/S.

valid to:
1910291900




ICAO
BGNS (NARSAQ)

FIR
BGGL

Notam_id:
BGC0087/19

valid from:
1909111505

E) TUNULLIARFIK TRANSMISSION LINE MAST OBST LIGHTS OUT OF SERVICE. PSN 605254N0455957W HGT 922FT MSL.

valid to:
1911291700EST




ICAO
BGGL (SONDRESTROM FIR)

FIR
BGGL

Notam_id:
BGA0483/19

valid from:
1909271038

E) NUUK INFORMATION FREQ 5526 KHZ PSN 6334N03707W KULUSUK U/S.

valid to:
2004011800




ICAO
BGGL (SONDRESTROM FIR)

FIR
BGGL

Notam_id:
BGA0488/19

valid from:
1910010455

E) CHECKLIST YEAR=2017 0269 YEAR=2018 0199 YEAR=2019 0323 0416 0447 0469 0470 0471 0474 0482 0483 0485 0487 LATEST PUBLICATIONS AIP AIRAC AMDT IFR 007/2019 EFFECTIVE DATE 07 NOV 19 AIP AMDT IFR 003/2018 EFFECTIVE DATE 15 MAR 18 AIP SUP IFR 001/2019 EFFECTIVE DATE 06 JUN 19 AIC IFR A001/2019 EFFECTIVE DATE 17 JAN 19

valid to:
1911010455EST


Replacing:
BGA0454/19

ICAO
BGGL (SONDRESTROM FIR)

FIR
BGGL

Notam_id:
BGB0643/19

valid from:
1910010455

E) CHECKLIST YEAR=2017 0740 YEAR=2018 NIL YEAR=2019 0145 0506 0508 0582 0585 0605 0606 0625 0626 0627 0628 0636 0639 LATEST PUBLICATIONS AIP AIRAC AMDT IFR 007/2019 EFFECTIVE DATE 07 NOV 19 AIP AMDT IFR 003/2018 EFFECTIVE DATE 15 MAR 18 AIP SUP IFR 001/2019 EFFECTIVE DATE 06 JUN 19 AIC IFR A001/2019 EFFECTIVE DATE 17 JAN 19

valid to:
1911010455EST


Replacing:
BGB0587/19

ICAO
BGGL (SONDRESTROM FIR)

FIR
BGGL

Notam_id:
BGC0100/19

valid from:
1910010455

E) CHECKLIST YEAR=2018 0079 0081 YEAR=2019 0049 0067 0068 0070 0073 0087 0096 0098 0099 LATEST PUBLICATIONS AIP AIRAC AMDT IFR 007/2019 EFFECTIVE DATE 07 NOV 19 AIP AMDT IFR 003/2018 EFFECTIVE DATE 15 MAR 18 AIP SUP IFR 001/2019 EFFECTIVE DATE 06 JUN 19 AIC IFR A001/2019 EFFECTIVE DATE 17 JAN 19

valid to:
1911010455EST


Replacing:
BGC0086/19

ICAO
BGGL (SONDRESTROM FIR)

FIR
BGGL

Notam_id:
BGA0447/19

valid from:
1910100000

E) AIP GREENLAND AIRAC AMDT EFFECTIVE DATE 10 OCT 2019: NIL.

valid to:
1910232359




ICAO
BGGL (SONDRESTROM FIR)

FIR
BGGL

Notam_id:
BGA0416/19

valid from:
1908141100

E) DIRECTION OF CRUISING LEVELS FOR RNP-ROUTE UT596 HAS BEEN CHANGED FROM EVEN TO ODD.

valid to:
1911062359




ICAO
BGGL (SONDRESTROM FIR)

FIR
BGGL

Notam_id:
BGA0470/19

valid from:
1911070000

E) TRIGGER NOTAM - PERM AIP AIRAC AMDT 07/19 WEF 07 NOV 2019. DME PA (CH26Y) WITHDRAWN. SUNRISE/SUNSET TABLES UPDATED. DIRECTION CHANGED FROM EVEN TO ODD AT AREA NAVIGATION (RNAV) ROUTE UT596.

valid to:
1911202359




ICAO
BGGL (SONDRESTROM FIR)

FIR
BGGL

Notam_id:
BGA0519/19

valid from:
1912050000

E) TRIGGER NOTAM - PERM AIP AIRAC AMDT 08/19 WEF 05 DEC 2019. LIST OF AIRAC EFFECTIVE DATES UPDATED.

valid to:
1912182359




ICAO
BGGL (SONDRESTROM FIR)

FIR
BGGL

Notam_id:
BGA0199/18

valid from:
1805310935

E) GREENLAND AND ADJACENT WATERS ARE CONSIDERED HOSTILE AREAS BY THE CIVIL AVIATION AUTHORITY (TBST). THREE MAJOR REASONS CONTRIBUTE TO DEFINING THE AREA AS HOSTILE: A SAFE FORCED LANDING CANNOT BE ACCOMPLISHED BECAUSE THE SURFACE IS INADEQUATE. THE HELICOPTER OCCUPANTS CANNOT BE ADEQUATELY PROTECTED FROM THE ELEMENTS. SEARCH AND RESCUE RESPONSE/CAPABILITY ARE NOT PROVIDED CONSISTENT WITH ANTICIPATED EXPOSURE.

valid to:
PERM




ICAO
BGGH (NUUK)

FIR
BGGL

Notam_id:
BGB0605/19

valid from:
1909101306

E) BGGH AFIS FREQ 119,100MHZ LIMITED RADIOCOVERAGE WITHIN TIZ TO THE NE, E, SE AND S.

valid to:
1911301300EST





Copyright Naviair   2003-2016